Time;durP1;ratioP1;P1;durP2;ratioP2;P2;SDS_P1;SDS_P2;PMS_P1;PMS_P2;Temp;Humidity;BMP_temperature;BMP_pressure;BME280_temperature;BME280_humidity;BME280_pressure;Samples;Min_cycle;Max_cycle;Signal;HPM_P1;HPM_P2
2023/08/25 00:00:37;;;;;;;8.25;5.25;;;20.50;99.90;;;;;;5018057;28;20026;-68
2023/08/25 00:03:03;;;;;;;10.77;5.95;;;20.40;99.90;;;;;;5018279;28;20029;-68
2023/08/25 00:05:28;;;;;;;14.48;6.55;;;20.30;99.90;;;;;;5017989;28;20117;-68
2023/08/25 00:07:54;;;;;;;8.15;5.20;;;20.30;99.90;;;;;;5018905;28;20065;-68
2023/08/25 00:10:19;;;;;;;8.98;5.47;;;20.30;99.90;;;;;;5018667;28;20117;-68
2023/08/25 00:12:46;;;;;;;11.00;7.80;;;20.30;99.90;;;;;;5018677;28;20025;-68
2023/08/25 00:15:12;;;;;;;8.10;5.70;;;20.20;99.90;;;;;;5018841;28;20029;-68
2023/08/25 00:17:37;;;;;;;9.05;6.28;;;20.10;99.90;;;;;;5017824;28;20026;-68
2023/08/25 00:20:08;;;;;;;12.52;7.28;;;20.00;99.90;;;;;;5018084;28;20101;-69
2023/08/25 00:22:34;;;;;;;9.27;5.40;;;20.00;99.90;;;;;;5017836;28;20105;-68
2023/08/25 00:25:00;;;;;;;7.60;4.90;;;20.00;99.90;;;;;;5018689;28;20265;-68
2023/08/25 00:27:25;;;;;;;9.07;5.72;;;20.00;99.90;;;;;;5017916;28;20029;-68
2023/08/25 00:29:53;;;;;;;9.90;5.38;;;20.20;99.90;;;;;;5017540;28;20052;-68
2023/08/25 00:32:18;;;;;;;7.78;5.50;;;20.20;99.90;;;;;;5017643;28;20026;-69
2023/08/25 00:34:44;;;;;;;12.63;6.57;;;20.20;99.90;;;;;;5016791;28;20156;-68
2023/08/25 00:37:09;;;;;;;8.40;5.72;;;20.10;99.90;;;;;;5018146;28;20022;-68
2023/08/25 00:39:35;;;;;;;8.43;5.75;;;20.00;99.90;;;;;;5018385;28;20026;-69
2023/08/25 00:42:00;;;;;;;13.05;5.85;;;20.00;99.90;;;;;;5017457;28;20024;-68
2023/08/25 00:44:26;;;;;;;8.95;6.15;;;20.00;99.90;;;;;;5018148;28;20029;-69
2023/08/25 00:46:52;;;;;;;11.10;5.65;;;20.00;99.90;;;;;;5017156;28;20036;-68
2023/08/25 00:49:19;;;;;;;10.52;6.03;;;20.00;99.90;;;;;;5017751;28;20033;-68
2023/08/25 00:51:45;;;;;;;11.02;5.45;;;20.00;99.90;;;;;;5017262;28;20072;-68
2023/08/25 00:54:11;;;;;;;8.48;5.82;;;20.00;99.90;;;;;;5017485;28;20022;-68
2023/08/25 00:56:37;;;;;;;15.10;6.05;;;20.00;99.90;;;;;;5017610;28;20025;-68
2023/08/25 00:59:04;;;;;;;7.22;5.13;;;19.90;99.90;;;;;;5017168;28;20022;-68
2023/08/25 01:01:30;;;;;;;11.38;5.88;;;19.90;99.90;;;;;;5017893;28;20116;-68
2023/08/25 01:03:56;;;;;;;9.43;6.55;;;19.90;99.90;;;;;;5017136;28;20026;-68
2023/08/25 01:06:22;;;;;;;13.98;6.30;;;19.90;99.90;;;;;;5016970;28;20036;-68
2023/08/25 01:08:48;;;;;;;15.65;6.57;;;19.80;99.90;;;;;;5017256;28;20032;-68
2023/08/25 01:11:51;;;;;;;9.30;5.43;;;19.70;99.90;;;;;;5017651;28;20033;-68
2023/08/25 01:14:30;;;;;;;8.63;5.60;;;19.60;99.90;;;;;;5016961;28;20029;-68
2023/08/25 01:17:05;;;;;;;8.80;5.38;;;19.70;99.90;;;;;;5017686;28;20025;-68
2023/08/25 01:19:44;;;;;;;8.05;5.15;;;19.70;99.90;;;;;;5017956;28;20025;-68
2023/08/25 01:22:16;;;;;;;12.32;5.70;;;19.70;99.90;;;;;;5017688;28;20030;-68
2023/08/25 01:24:43;;;;;;;7.40;5.32;;;19.80;99.90;;;;;;5017292;28;20026;-68
2023/08/25 01:27:10;;;;;;;12.45;6.13;;;20.00;99.90;;;;;;5016789;28;20030;-68
2023/08/25 01:29:40;;;;;;;12.98;5.68;;;19.90;99.90;;;;;;5016726;28;20042;-68
2023/08/25 01:32:06;;;;;;;8.13;5.97;;;19.90;99.90;;;;;;5017181;28;20088;-68
2023/08/25 01:34:33;;;;;;;5.60;4.90;;;19.80;99.90;;;;;;5017653;28;20026;-68
2023/08/25 01:37:23;;;;;;;6.90;3.60;;;19.60;99.90;;;;;;5017561;28;20082;-68
2023/08/25 01:39:50;;;;;;;8.38;4.40;;;19.50;99.90;;;;;;5016674;28;20018;-68
2023/08/25 01:42:20;;;;;;;7.63;5.18;;;19.50;99.90;;;;;;5016793;28;20076;-68
2023/08/25 01:44:47;;;;;;;7.53;4.93;;;19.50;99.90;;;;;;5016503;28;20026;-68
2023/08/25 01:47:18;;;;;;;9.32;4.93;;;19.60;99.90;;;;;;5016193;28;20034;-68
2023/08/25 01:49:44;;;;;;;5.18;4.68;;;19.60;99.90;;;;;;5016207;28;20072;-68
2023/08/25 01:52:12;;;;;;;10.65;5.05;;;19.70;99.90;;;;;;5017386;28;20061;-68
2023/08/25 01:54:38;;;;;;;9.93;5.60;;;19.70;99.90;;;;;;5017345;28;20072;-68
2023/08/25 01:57:04;;;;;;;6.70;5.35;;;19.70;99.90;;;;;;5017061;28;20108;-68
2023/08/25 01:59:29;;;;;;;8.85;6.03;;;19.70;99.90;;;;;;5016448;28;20036;-68
2023/08/25 02:01:55;;;;;;;10.10;6.30;;;19.70;99.90;;;;;;5016576;28;20026;-69
2023/08/25 02:04:20;;;;;;;11.05;5.70;;;19.60;99.90;;;;;;5016383;28;20176;-68
2023/08/25 02:06:46;;;;;;;11.10;5.70;;;19.50;99.90;;;;;;5016261;28;20026;-68
2023/08/25 02:09:11;;;;;;;9.00;5.75;;;19.30;99.90;;;;;;5017075;28;20053;-68
2023/08/25 02:11:37;;;;;;;13.30;5.70;;;19.30;99.90;;;;;;5016226;28;20084;-68
2023/08/25 02:14:03;;;;;;;10.85;6.05;;;19.40;99.90;;;;;;5016013;28;20021;-68
2023/08/25 02:16:28;;;;;;;13.48;7.72;;;19.40;99.90;;;;;;5016519;28;20060;-68
2023/08/25 02:18:54;;;;;;;11.90;7.47;;;19.50;99.90;;;;;;5017069;28;20022;-68
2023/08/25 02:21:19;;;;;;;20.40;9.93;;;19.60;99.90;;;;;;5016953;28;20109;-68
2023/08/25 02:23:45;;;;;;;22.50;10.43;;;19.60;99.90;;;;;;5016883;28;20029;-69
2023/08/25 02:26:10;;;;;;;33.53;12.68;;;19.70;99.90;;;;;;5017502;28;20060;-68
2023/08/25 02:28:36;;;;;;;29.63;11.85;;;19.70;99.90;;;;;;5016978;28;20076;-68
2023/08/25 02:31:02;;;;;;;32.10;14.50;;;19.80;99.90;;;;;;5016950;28;20063;-68
2023/08/25 02:33:27;;;;;;;35.75;16.50;;;20.00;99.90;;;;;;5016053;28;20049;-69
2023/08/25 02:35:53;;;;;;;38.10;16.70;;;20.00;99.90;;;;;;5016167;28;20022;-68
2023/08/25 02:38:19;;;;;;;39.58;16.48;;;20.00;99.90;;;;;;5015924;28;20026;-69
2023/08/25 02:40:44;;;;;;;32.85;17.20;;;20.00;99.90;;;;;;5016763;28;20029;-68
2023/08/25 02:43:10;;;;;;;29.83;15.95;;;20.10;99.90;;;;;;5015969;28;20026;-68
2023/08/25 02:45:35;;;;;;;30.45;16.70;;;20.10;99.90;;;;;;5016849;28;20037;-68
2023/08/25 02:48:01;;;;;;;32.35;17.30;;;20.20;99.90;;;;;;5016220;28;20030;-66
2023/08/25 02:50:27;;;;;;;34.90;18.98;;;20.40;99.90;;;;;;5015910;28;20026;-66
2023/08/25 02:52:53;;;;;;;33.13;17.85;;;20.40;99.90;;;;;;5015983;28;20026;-65
2023/08/25 02:55:20;;;;;;;40.53;18.48;;;20.40;99.90;;;;;;5016628;28;20056;-66
2023/08/25 02:57:47;;;;;;;51.53;19.55;;;20.30;99.90;;;;;;5016521;28;20022;-66
2023/08/25 03:00:15;;;;;;;40.60;20.88;;;20.30;99.90;;;;;;5019397;28;20084;-66
2023/08/25 03:02:40;;;;;;;49.55;20.77;;;20.20;99.90;;;;;;5019470;28;20033;-66
2023/08/25 03:05:07;;;;;;;54.65;23.80;;;20.10;99.90;;;;;;5019207;28;20112;-66
2023/08/25 03:07:33;;;;;;;51.17;21.67;;;20.00;99.90;;;;;;5019053;28;20080;-65
2023/08/25 03:09:58;;;;;;;48.65;23.25;;;20.00;99.90;;;;;;5019936;28;20030;-66
2023/08/25 03:12:24;;;;;;;57.10;25.08;;;20.20;99.90;;;;;;5019204;28;20108;-66
2023/08/25 03:14:50;;;;;;;50.17;22.92;;;20.10;99.90;;;;;;5020319;28;20030;-66
2023/08/25 03:17:16;;;;;;;51.83;23.42;;;20.30;99.90;;;;;;5019270;28;20026;-66
2023/08/25 03:19:42;;;;;;;67.93;27.98;;;20.40;99.90;;;;;;5019066;28;20037;-66
2023/08/25 03:22:07;;;;;;;54.53;24.88;;;20.30;99.90;;;;;;5019194;28;20025;-66
2023/08/25 03:24:33;;;;;;;51.70;25.10;;;20.30;99.90;;;;;;5020144;28;20037;-66
2023/08/25 03:26:59;;;;;;;54.10;25.38;;;20.40;99.90;;;;;;5019706;28;20026;-66
2023/08/25 03:29:25;;;;;;;51.13;24.30;;;20.50;99.90;;;;;;5019448;28;20022;-66
2023/08/25 03:31:51;;;;;;;47.67;23.90;;;20.60;99.90;;;;;;5019771;28;20025;-65
2023/08/25 03:34:16;;;;;;;49.95;23.60;;;20.60;99.90;;;;;;5019001;28;20022;-66
2023/08/25 03:36:42;;;;;;;53.60;26.10;;;20.70;99.90;;;;;;5018595;28;20029;-65
2023/08/25 03:39:07;;;;;;;61.30;26.35;;;20.80;99.90;;;;;;5018627;28;20021;-66
2023/08/25 03:41:33;;;;;;;47.00;24.67;;;20.70;99.90;;;;;;5018553;28;20025;-66
2023/08/25 03:43:58;;;;;;;48.80;23.60;;;20.70;99.90;;;;;;5018593;28;20029;-66
2023/08/25 03:46:24;;;;;;;43.42;22.92;;;20.70;99.90;;;;;;5018327;28;20036;-66
2023/08/25 03:48:49;;;;;;;44.00;21.95;;;20.80;99.90;;;;;;5018432;28;20101;-66
2023/08/25 03:51:15;;;;;;;48.83;23.77;;;20.80;99.90;;;;;;5018637;28;20025;-66
2023/08/25 03:53:41;;;;;;;47.88;25.30;;;20.90;99.90;;;;;;5018341;28;20022;-66
2023/08/25 03:56:06;;;;;;;42.53;20.98;;;20.90;99.90;;;;;;5019661;28;20022;-65
2023/08/25 03:58:32;;;;;;;42.67;22.73;;;20.90;99.90;;;;;;5018459;28;20087;-66
2023/08/25 04:00:58;;;;;;;46.35;23.90;;;20.90;99.90;;;;;;5018213;28;20121;-65
2023/08/25 04:03:24;;;;;;;46.90;23.48;;;20.80;99.90;;;;;;5018211;28;20030;-66
2023/08/25 04:05:50;;;;;;;46.22;22.88;;;20.80;99.90;;;;;;5018019;28;20132;-66
2023/08/25 04:08:15;;;;;;;50.67;22.70;;;20.70;99.90;;;;;;5018286;28;20105;-66
2023/08/25 04:10:41;;;;;;;47.40;24.13;;;20.80;99.90;;;;;;5018747;28;20025;-66
2023/08/25 04:13:07;;;;;;;56.05;25.25;;;20.90;99.90;;;;;;5018088;28;20022;-66
2023/08/25 04:15:33;;;;;;;54.97;26.02;;;20.50;99.90;;;;;;5018695;28;20112;-66
2023/08/25 04:17:58;;;;;;;56.25;25.85;;;20.30;99.90;;;;;;5018054;28;20045;-66
2023/08/25 04:20:24;;;;;;;53.17;26.00;;;20.30;99.90;;;;;;5019264;28;20075;-66
2023/08/25 04:22:50;;;;;;;63.60;28.70;;;20.20;99.90;;;;;;5018044;28;20022;-66
2023/08/25 04:25:15;;;;;;;58.17;27.08;;;20.00;99.90;;;;;;5018696;28;20033;-66
2023/08/25 04:27:41;;;;;;;70.38;29.80;;;19.70;99.90;;;;;;5018511;28;20056;-66
2023/08/25 04:30:07;;;;;;;53.67;25.02;;;19.70;99.90;;;;;;5017726;28;20026;-66
2023/08/25 04:32:32;;;;;;;49.10;24.23;;;19.70;99.90;;;;;;5018499;28;20030;-66
2023/08/25 04:34:58;;;;;;;58.78;26.10;;;19.80;99.90;;;;;;5017593;28;20029;-65
2023/08/25 04:37:23;;;;;;;63.80;26.95;;;19.90;99.90;;;;;;5017611;28;20030;-66
2023/08/25 04:39:49;;;;;;;56.65;26.92;;;19.80;99.90;;;;;;5017470;28;20022;-66
2023/08/25 04:42:14;;;;;;;54.90;25.83;;;19.70;99.90;;;;;;5017899;28;20017;-65
2023/08/25 04:44:40;;;;;;;54.92;24.98;;;19.80;99.90;;;;;;5017289;28;20045;-66
2023/08/25 04:47:05;;;;;;;51.85;24.48;;;19.80;99.90;;;;;;5017529;28;20121;-66
2023/08/25 04:49:31;;;;;;;45.40;22.70;;;19.90;99.90;;;;;;5017256;28;20018;-66
2023/08/25 04:51:58;;;;;;;53.25;23.92;;;20.10;99.90;;;;;;5017702;28;20154;-66
2023/08/25 04:54:24;;;;;;;54.65;25.48;;;20.20;99.90;;;;;;5018172;28;20049;-66
2023/08/25 04:56:50;;;;;;;55.22;23.17;;;20.00;99.90;;;;;;5017968;28;20026;-66
2023/08/25 04:59:15;;;;;;;50.70;22.40;;;19.90;99.90;;;;;;5017604;28;20108;-65
2023/08/25 05:01:41;;;;;;;57.63;23.95;;;20.00;99.90;;;;;;5017534;28;20022;-66
2023/08/25 05:04:08;;;;;;;52.67;22.58;;;20.00;99.90;;;;;;5017101;28;20021;-65
2023/08/25 05:06:33;;;;;;;47.60;22.95;;;19.90;99.90;;;;;;5017084;28;20026;-66
2023/08/25 05:08:59;;;;;;;66.65;26.40;;;19.90;99.90;;;;;;5017278;28;20037;-66
2023/08/25 05:11:25;;;;;;;60.63;23.83;;;19.90;99.90;;;;;;5017697;28;20029;-66
2023/08/25 05:13:50;;;;;;;54.42;22.77;;;19.80;99.90;;;;;;5016796;28;20022;-66
2023/08/25 05:16:18;;;;;;;53.60;22.73;;;19.90;99.90;;;;;;5017855;28;20093;-66
2023/08/25 05:18:44;;;;;;;54.72;23.27;;;20.10;99.90;;;;;;5016842;28;20046;-66
2023/08/25 05:21:09;;;;;;;60.70;25.42;;;20.20;99.90;;;;;;5016476;28;20025;-66
2023/08/25 05:23:35;;;;;;;56.67;24.10;;;20.00;99.90;;;;;;5017220;28;20068;-67
2023/08/25 05:26:01;;;;;;;61.28;25.05;;;19.90;99.90;;;;;;5016600;28;20117;-66
2023/08/25 05:28:26;;;;;;;57.17;24.13;;;19.80;99.90;;;;;;5017551;28;20060;-65
2023/08/25 05:30:52;;;;;;;50.40;22.25;;;19.90;99.90;;;;;;5017478;28;20103;-66
2023/08/25 05:33:17;;;;;;;52.15;23.50;;;20.20;99.90;;;;;;5017020;28;20050;-66
2023/08/25 05:35:43;;;;;;;56.65;24.30;;;20.30;99.90;;;;;;5016563;28;20018;-66
2023/08/25 05:38:08;;;;;;;57.78;24.05;;;20.20;99.90;;;;;;5016638;28;20022;-65
2023/08/25 05:40:34;;;;;;;58.88;23.58;;;20.20;99.90;;;;;;5017668;28;20026;-65
2023/08/25 05:42:59;;;;;;;57.53;23.05;;;20.10;99.90;;;;;;5016805;28;20026;-66
2023/08/25 05:45:25;;;;;;;64.68;25.42;;;20.00;99.90;;;;;;5016486;28;20030;-66
2023/08/25 05:47:50;;;;;;;57.22;24.80;;;19.90;99.90;;;;;;5016677;28;20037;-65
2023/08/25 05:50:16;;;;;;;58.05;24.33;;;19.90;99.90;;;;;;5017407;28;20036;-66
2023/08/25 05:52:44;;;;;;;54.42;22.80;;;20.00;99.90;;;;;;5017237;28;20021;-66
2023/08/25 05:55:13;;;;;;;54.88;23.33;;;20.00;99.90;;;;;;5016467;28;20022;-66
2023/08/25 05:57:39;;;;;;;57.60;23.83;;;20.10;99.90;;;;;;5016586;28;20022;-65
2023/08/25 06:00:06;;;;;;;50.15;22.45;;;20.20;99.90;;;;;;5016299;28;20030;-66
2023/08/25 06:02:32;;;;;;;44.65;22.20;;;20.20;99.90;;;;;;5017130;28;20022;-66
2023/08/25 06:04:58;;;;;;;53.13;23.38;;;20.50;99.90;;;;;;5016675;28;20034;-66
2023/08/25 06:07:23;;;;;;;58.78;24.90;;;20.80;99.90;;;;;;5016525;28;20118;-66
2023/08/25 06:09:49;;;;;;;56.28;25.20;;;20.90;99.90;;;;;;5016254;28;20084;-66
2023/08/25 06:12:14;;;;;;;62.05;26.50;;;20.90;99.90;;;;;;5016622;28;20029;-66
2023/08/25 06:14:40;;;;;;;78.28;28.05;;;20.70;99.90;;;;;;5016672;28;20141;-66
2023/08/25 06:17:05;;;;;;;73.20;30.33;;;20.60;99.90;;;;;;5016006;28;20037;-66
2023/08/25 06:19:31;;;;;;;77.53;32.22;;;20.30;99.90;;;;;;5016479;28;20109;-66
2023/08/25 06:21:57;;;;;;;83.60;33.53;;;20.10;99.90;;;;;;5016285;28;20022;-66
2023/08/25 06:24:24;;;;;;;59.05;28.05;;;20.20;99.90;;;;;;5016212;28;20064;-66
2023/08/25 06:26:51;;;;;;;74.72;29.52;;;20.30;99.90;;;;;;5016781;28;20037;-66
2023/08/25 06:29:16;;;;;;;70.38;29.33;;;20.40;99.90;;;;;;5016940;28;20037;-66
2023/08/25 06:31:42;;;;;;;62.97;26.85;;;20.40;99.90;;;;;;5016753;28;20030;-66
2023/08/25 06:34:08;;;;;;;61.80;28.60;;;20.40;99.90;;;;;;5019439;28;20032;-66
2023/08/25 06:36:33;;;;;;;69.00;30.38;;;20.20;99.90;;;;;;5019723;28;20048;-66
2023/08/25 06:39:00;;;;;;;49.08;23.85;;;20.20;99.90;;;;;;5021010;28;20022;-66
2023/08/25 06:41:25;;;;;;;48.47;23.15;;;20.20;99.90;;;;;;5019730;28;20022;-66
2023/08/25 06:43:51;;;;;;;47.22;22.73;;;20.50;99.90;;;;;;5019638;28;20032;-66
2023/08/25 06:46:17;;;;;;;51.47;23.90;;;20.50;99.90;;;;;;5019531;28;20041;-66
2023/08/25 06:48:43;;;;;;;42.63;22.90;;;20.70;99.90;;;;;;5020314;28;20053;-66
2023/08/25 06:51:09;;;;;;;49.00;23.83;;;20.80;99.90;;;;;;5019631;28;20026;-66
2023/08/25 06:53:34;;;;;;;41.97;21.33;;;20.80;99.90;;;;;;5019553;28;20025;-66
2023/08/25 06:56:00;;;;;;;42.17;21.92;;;20.90;99.90;;;;;;5019393;28;20029;-66
2023/08/25 06:58:25;;;;;;;50.30;22.40;;;21.00;99.90;;;;;;5019328;28;20064;-66
2023/08/25 07:00:52;;;;;;;47.47;21.90;;;21.00;99.90;;;;;;5019454;28;20030;-66
2023/08/25 07:03:18;;;;;;;51.25;22.90;;;21.00;99.90;;;;;;5019533;28;20113;-66
2023/08/25 07:05:43;;;;;;;46.85;21.83;;;21.00;99.90;;;;;;5019030;28;20060;-66
2023/08/25 07:08:09;;;;;;;40.22;21.67;;;21.10;99.90;;;;;;5019210;28;20087;-66
2023/08/25 07:10:35;;;;;;;46.67;21.90;;;21.20;99.90;;;;;;5019024;28;20032;-66
2023/08/25 07:13:00;;;;;;;40.25;20.27;;;21.30;99.90;;;;;;5019129;28;20022;-66
2023/08/25 07:15:26;;;;;;;40.25;20.77;;;21.30;99.90;;;;;;5018963;28;20033;-66
2023/08/25 07:17:51;;;;;;;56.78;24.63;;;21.20;99.90;;;;;;5019215;28;20022;-66
2023/08/25 07:20:17;;;;;;;44.85;24.13;;;21.10;99.90;;;;;;5019060;28;20033;-66
2023/08/25 07:22:43;;;;;;;47.78;21.70;;;21.10;99.90;;;;;;5018931;28;20030;-66
2023/08/25 07:25:09;;;;;;;59.20;25.90;;;21.10;99.90;;;;;;5019017;28;20033;-66
2023/08/25 07:27:35;;;;;;;44.13;22.30;;;21.10;99.90;;;;;;5018769;28;20026;-66
2023/08/25 07:30:00;;;;;;;40.72;19.08;;;21.20;99.90;;;;;;5018946;28;20033;-66
2023/08/25 07:32:26;;;;;;;39.83;21.08;;;21.30;99.90;;;;;;5018738;28;20025;-66
2023/08/25 07:34:52;;;;;;;33.75;18.80;;;21.40;99.90;;;;;;5019593;28;20101;-66
2023/08/25 07:37:17;;;;;;;37.95;20.00;;;21.50;99.90;;;;;;5018615;28;20057;-66
2023/08/25 07:39:50;;;;;;;40.60;20.90;;;21.50;99.90;;;;;;5019795;28;20018;-66
2023/08/25 07:42:15;;;;;;;33.22;17.90;;;21.60;99.90;;;;;;5019108;28;20026;-66
2023/08/25 07:44:41;;;;;;;38.53;18.92;;;21.60;99.90;;;;;;5019107;28;20049;-66
2023/08/25 07:47:07;;;;;;;32.50;17.25;;;21.60;99.90;;;;;;5018604;28;20029;-66
2023/08/25 07:49:33;;;;;;;29.60;16.52;;;21.60;99.90;;;;;;5019163;28;20066;-65
2023/08/25 07:51:58;;;;;;;27.38;16.40;;;21.70;99.90;;;;;;5018706;28;20030;-65
2023/08/25 07:54:25;;;;;;;25.30;14.93;;;21.80;99.90;;;;;;5018419;28;20025;-66
2023/08/25 07:56:50;;;;;;;29.55;16.13;;;21.80;99.90;;;;;;5019388;28;20028;-66
2023/08/25 07:59:16;;;;;;;30.00;15.80;;;21.90;99.90;;;;;;5019295;28;20022;-65
2023/08/25 08:01:42;;;;;;;24.85;14.35;;;21.90;99.90;;;;;;5018195;28;20032;-65
2023/08/25 08:04:08;;;;;;;25.83;15.57;;;21.80;99.90;;;;;;5018298;28;20022;-65
2023/08/25 08:06:34;;;;;;;29.00;17.25;;;21.90;99.90;;;;;;5017989;28;20044;-65
2023/08/25 08:09:00;;;;;;;30.67;16.23;;;21.80;99.90;;;;;;5018071;28;20026;-65
2023/08/25 08:11:25;;;;;;;23.40;14.52;;;21.80;99.90;;;;;;5018368;28;20036;-66
2023/08/25 08:13:51;;;;;;;27.08;14.38;;;21.90;99.90;;;;;;5017919;28;20026;-65
2023/08/25 08:16:17;;;;;;;28.27;17.20;;;22.00;99.90;;;;;;5018267;28;20026;-65
2023/08/25 08:18:42;;;;;;;23.90;15.25;;;21.80;99.90;;;;;;5018732;28;20173;-66
2023/08/25 08:21:08;;;;;;;32.60;18.63;;;21.80;99.90;;;;;;5018113;28;20026;-65
2023/08/25 08:23:33;;;;;;;30.02;17.80;;;21.70;99.90;;;;;;5002270;28;20034;-64
2023/08/25 08:25:59;;;;;;;31.60;18.33;;;21.60;99.90;;;;;;5017914;28;20026;-64
2023/08/25 08:28:24;;;;;;;28.90;16.73;;;21.80;99.90;;;;;;5017730;28;20021;-65
2023/08/25 08:30:50;;;;;;;23.13;15.20;;;21.90;99.90;;;;;;5018377;28;20022;-66
2023/08/25 08:33:16;;;;;;;25.95;15.32;;;22.00;99.90;;;;;;5017886;28;20041;-65
2023/08/25 08:35:41;;;;;;;23.70;15.55;;;22.20;99.90;;;;;;5017415;28;20022;-65
2023/08/25 08:38:07;;;;;;;24.55;14.90;;;22.20;99.90;;;;;;5017586;28;20040;-64
2023/08/25 08:40:34;;;;;;;19.75;13.43;;;22.40;99.90;;;;;;5018497;28;20028;-64
2023/08/25 08:43:03;;;;;;;24.13;14.45;;;22.40;99.90;;;;;;5018551;28;20045;-65
2023/08/25 08:45:38;;;;;;;24.13;14.27;;;22.40;99.90;;;;;;5017500;28;20104;-65
2023/08/25 08:48:05;;;;;;;19.38;12.57;;;22.60;99.90;;;;;;5017635;28;20061;-64
2023/08/25 08:50:34;;;;;;;21.38;11.70;;;22.70;99.90;;;;;;5018489;28;20029;-64
2023/08/25 08:53:00;;;;;;;18.25;11.57;;;22.90;99.90;;;;;;5018112;28;20045;-65
2023/08/25 08:55:27;;;;;;;18.58;11.05;;;23.00;99.90;;;;;;5017717;28;20148;-64
2023/08/25 08:57:52;;;;;;;16.45;9.82;;;23.00;99.90;;;;;;5017221;28;20113;-65
2023/08/25 09:00:18;;;;;;;13.38;9.52;;;22.90;99.90;;;;;;5017433;28;20050;-66
2023/08/25 09:02:57;;;;;;;14.85;9.63;;;23.10;99.90;;;;;;5018305;28;20119;-65
2023/08/25 09:05:29;;;;;;;13.07;8.50;;;23.30;99.90;;;;;;5017105;28;20037;-65
2023/08/25 09:08:00;;;;;;;10.88;7.25;;;23.60;99.90;;;;;;5016964;28;20036;-66
2023/08/25 09:10:26;;;;;;;;;;;23.80;99.90;;;;;;5017376;28;20033;-65
2023/08/25 09:12:52;;;;;;;8.57;5.88;;;23.90;99.90;;;;;;5016840;28;19949;-65
2023/08/25 09:15:29;;;;;;;10.18;6.20;;;23.90;99.90;;;;;;5017986;28;20029;-66
2023/08/25 09:18:06;;;;;;;10.48;6.10;;;23.90;99.90;;;;;;5016868;28;20028;-65
2023/08/25 09:20:40;;;;;;;10.68;6.32;;;23.80;99.90;;;;;;5016783;28;20018;-66
2023/08/25 09:23:08;;;;;;;8.32;4.90;;;23.90;99.90;;;;;;5017912;28;20018;-66
2023/08/25 09:25:33;;;;;;;9.02;4.80;;;24.10;99.90;;;;;;5016886;28;20042;-65
2023/08/25 09:28:00;;;;;;;7.22;4.63;;;24.20;99.90;;;;;;5016855;28;20037;-65
2023/08/25 09:30:39;;;;;;;9.02;4.95;;;24.50;99.90;;;;;;5017478;28;20026;-65
2023/08/25 09:33:08;;;;;;;7.03;4.70;;;24.60;99.90;;;;;;5017489;28;20113;-65
2023/08/25 09:35:34;;;;;;;6.85;5.03;;;24.60;99.90;;;;;;5017336;28;20022;-65
2023/08/25 09:38:00;;;;;;;7.80;4.72;;;24.40;99.90;;;;;;5017014;28;20026;-64
2023/08/25 09:40:27;;;;;;;10.80;5.13;;;24.30;99.90;;;;;;5016482;28;20026;-65
2023/08/25 09:42:57;;;;;;;8.57;5.55;;;24.30;99.90;;;;;;5017428;28;20106;-66
2023/08/25 09:45:26;;;;;;;8.73;5.10;;;24.40;99.90;;;;;;5017146;28;20144;-65
2023/08/25 09:47:52;;;;;;;8.15;5.10;;;24.30;99.90;;;;;;5016306;28;20034;-65
2023/08/25 09:50:19;;;;;;;9.07;4.90;;;24.30;99.90;;;;;;5016705;28;20058;-65
2023/08/25 09:52:47;;;;;;;9.93;4.57;;;24.20;99.90;;;;;;5016355;28;20029;-65
2023/08/25 09:55:14;;;;;;;9.45;3.50;;;24.00;99.90;;;;;;5017331;28;20060;-65
2023/08/25 09:57:43;;;;;;;7.95;3.55;;;24.20;99.90;;;;;;5016354;28;20021;-65
2023/08/25 10:00:11;;;;;;;4.95;3.33;;;24.30;99.90;;;;;;5017115;28;20018;-64
2023/08/25 10:02:37;;;;;;;5.15;3.05;;;24.50;99.90;;;;;;5016372;28;20026;-65
2023/08/25 10:05:03;;;;;;;5.72;2.78;;;24.50;99.90;;;;;;5016651;28;20034;-65
2023/08/25 10:07:31;;;;;;;5.15;2.80;;;24.60;99.90;;;;;;5018440;28;20022;-65
2023/08/25 10:09:56;;;;;;;3.88;2.65;;;24.70;99.90;;;;;;5020378;28;20104;-65
2023/08/25 10:12:23;;;;;;;6.70;3.22;;;24.70;99.90;;;;;;5021066;28;20061;-65
2023/08/25 10:14:52;;;;;;;5.18;2.90;;;24.60;99.90;;;;;;5020578;28;20018;-65
2023/08/25 10:17:19;;;;;;;4.75;2.75;;;24.70;99.90;;;;;;5020216;28;20089;-65
2023/08/25 10:19:47;;;;;;;4.18;2.83;;;24.70;99.90;;;;;;5020152;28;20040;-65
2023/08/25 10:22:14;;;;;;;4.15;3.45;;;24.80;99.90;;;;;;5019996;28;20026;-65
2023/08/25 10:24:41;;;;;;;6.25;2.63;;;24.80;99.90;;;;;;5020277;28;20033;-65
2023/08/25 10:27:07;;;;;;;4.53;2.58;;;24.90;99.90;;;;;;5020806;28;20026;-65
2023/08/25 10:29:33;;;;;;;6.30;2.85;;;25.10;99.90;;;;;;5020344;28;20030;-65
2023/08/25 10:32:01;;;;;;;6.03;3.08;;;25.40;99.90;;;;;;5020666;28;20033;-65
2023/08/25 10:34:43;;;;;;;5.30;2.90;;;25.40;99.90;;;;;;5019931;28;20040;-65
2023/08/25 10:37:10;;;;;;;6.43;2.45;;;25.70;99.90;;;;;;5020540;28;20029;-65
2023/08/25 10:39:49;;;;;;;6.00;2.85;;;26.10;99.90;;;;;;5020999;28;20018;-65
2023/08/25 10:42:32;;;;;;;3.10;2.65;;;26.20;99.90;;;;;;5020510;28;20049;-65
2023/08/25 10:45:11;;;;;;;5.90;2.58;;;26.30;99.90;;;;;;5020596;28;20032;-65
2023/08/25 10:47:41;;;;;;;5.80;2.63;;;27.20;99.90;;;;;;5019767;28;20069;-65
2023/08/25 10:50:07;;;;;;;5.57;2.90;;;27.00;99.90;;;;;;5020503;28;20045;-65
2023/08/25 10:52:33;;;;;;;4.00;2.40;;;26.90;99.90;;;;;;5020358;28;20022;-65
2023/08/25 10:55:23;;;;;;;5.80;3.08;;;27.70;99.90;;;;;;5019561;28;20036;-65
2023/08/25 10:57:53;;;;;;;4.10;2.67;;;28.50;99.90;;;;;;5020824;28;20018;-65
2023/08/25 11:00:30;;;;;;;3.65;2.53;;;28.10;99.90;;;;;;5020475;28;20026;-66
2023/08/25 11:02:57;;;;;;;7.47;2.92;;;27.90;99.90;;;;;;5019571;28;20026;-66
2023/08/25 11:05:39;;;;;;;8.60;3.28;;;27.90;99.90;;;;;;5020448;28;20022;-65
2023/08/25 11:08:24;;;;;;;6.32;2.92;;;27.60;99.90;;;;;;5020277;28;20029;-65
2023/08/25 11:11:12;;;;;;;4.95;2.65;;;27.30;99.90;;;;;;5019113;28;20032;-65
2023/08/25 11:13:41;;;;;;;4.35;2.90;;;27.30;99.90;;;;;;5019230;28;20022;-65
2023/08/25 11:16:12;;;;;;;4.43;2.78;;;27.10;99.90;;;;;;5019008;28;20021;-65
2023/08/25 11:18:44;;;;;;;5.43;2.50;;;27.10;99.90;;;;;;5019607;28;20049;-66
2023/08/25 11:21:10;;;;;;;5.40;2.90;;;27.30;99.90;;;;;;5018855;28;20034;-65
2023/08/25 11:23:41;;;;;;;3.63;2.65;;;27.40;99.90;;;;;;5019306;28;20030;-65
2023/08/25 11:26:10;;;;;;;5.30;3.17;;;27.60;99.90;;;;;;5019927;28;20036;-65
2023/08/25 11:28:37;;;;;;;4.22;2.90;;;27.80;99.90;;;;;;5018885;28;20080;-65
2023/08/25 11:31:03;;;;;;;3.35;2.75;;;27.70;99.90;;;;;;5019932;28;20022;-65
2023/08/25 11:33:30;;;;;;;4.05;2.80;;;27.70;99.90;;;;;;5019092;28;20117;-65
2023/08/25 11:35:56;;;;;;;4.57;2.80;;;27.70;99.90;;;;;;5019680;28;20018;-65
2023/08/25 11:38:21;;;;;;;5.43;2.90;;;27.90;99.90;;;;;;5019208;28;20025;-65
2023/08/25 11:40:47;;;;;;;5.78;3.05;;;28.00;99.90;;;;;;5019260;28;20029;-65
2023/08/25 11:43:12;;;;;;;6.57;3.15;;;28.20;99.90;;;;;;5020079;28;20075;-65
2023/08/25 11:45:38;;;;;;;3.97;2.65;;;28.40;99.90;;;;;;5018724;28;20088;-65
2023/08/25 11:48:04;;;;;;;6.65;3.28;;;28.20;99.90;;;;;;5018838;28;20121;-65
2023/08/25 11:50:30;;;;;;;4.63;3.10;;;27.80;99.90;;;;;;5019314;28;20112;-65
2023/08/25 11:52:56;;;;;;;4.63;2.80;;;27.60;99.90;;;;;;5018426;28;20029;-65
2023/08/25 11:55:31;;;;;;;5.78;3.28;;;27.50;99.90;;;;;;5019042;28;20031;-65
2023/08/25 11:57:56;;;;;;;4.78;2.58;;;27.30;99.90;;;;;;5018365;28;20022;-65
2023/08/25 12:00:22;;;;;;;6.25;3.08;;;27.60;99.90;;;;;;5018225;28;20067;-65
2023/08/25 12:02:57;;;;;;;9.82;3.30;;;27.40;99.90;;;;;;5018918;28;20026;-65
2023/08/25 12:05:23;;;;;;;9.10;3.10;;;27.20;99.90;;;;;;5018382;28;20026;-65
2023/08/25 12:07:48;;;;;;;6.00;3.10;;;26.90;99.90;;;;;;5018530;28;20022;-65
2023/08/25 12:10:18;;;;;;;5.50;3.10;;;26.50;99.90;;;;;;5018030;28;20026;-65
2023/08/25 12:12:45;;;;;;;4.82;2.88;;;26.60;99.90;;;;;;5018068;28;20098;-65
2023/08/25 12:15:11;;;;;;;4.35;2.97;;;26.60;99.90;;;;;;5018081;28;20048;-65
2023/08/25 12:17:37;;;;;;;4.75;2.85;;;26.50;99.90;;;;;;5018738;28;20026;-65
2023/08/25 12:20:14;;;;;;;4.25;3.17;;;26.40;99.90;;;;;;5018659;28;20018;-65
2023/08/25 12:23:00;;;;;;;9.30;2.90;;;26.30;99.90;;;;;;5018144;28;20048;-65
2023/08/25 12:25:27;;;;;;;4.50;3.03;;;26.20;99.90;;;;;;5019290;28;20105;-65
2023/08/25 12:27:54;;;;;;;5.00;2.97;;;26.40;99.90;;;;;;5018307;28;20026;-65
2023/08/25 12:30:21;;;;;;;5.03;2.88;;;26.50;99.90;;;;;;5017035;28;20122;-65
2023/08/25 12:32:46;;;;;;;4.93;2.97;;;26.60;99.90;;;;;;5017717;28;20057;-65
2023/08/25 12:35:12;;;;;;;6.97;2.60;;;26.90;99.90;;;;;;5018378;28;20030;-65